ADDS METAR Data INFO
IDs: Format: Raw Decoded Include TAF

Data at: 1159 UTC 21 Jun 2018

K5SM 211152Z AUTO 23005KT 10SM CLR 08/M02 A3055 RMK AO2
K5SM 211130Z AUTO 23004KT 10SM CLR 08/M02 A3055 RMK AO2 LTG DSNT NW
K5SM 211112Z AUTO 24003KT 10SM CLR 08/M02 A3055 RMK AO2
K5SM 211051Z AUTO 24005KT 10SM CLR 08/M02 A3055 RMK AO2
K5SM 211034Z AUTO 24004KT 10SM CLR 08/M02 A3055 RMK AO2
K5SM 211010Z AUTO 24005KT 10SM CLR 08/M02 A3055 RMK AO2
K5SM 210946Z AUTO 24004KT 10SM CLR 08/M02 A3055 RMK AO2
K5SM 210930Z AUTO 24005KT 10SM CLR 08/M02 A3055 RMK AO2
K5SM 210912Z AUTO 25005KT 10SM CLR 08/M02 A3055 RMK AO2 LTG DSNT NW
K5SM 210852Z AUTO 25005KT 10SM CLR 08/M02 A3055 RMK AO2 LTG DSNT N
K5SM 210829Z AUTO 25005KT 10SM CLR 08/M02 A3055 RMK AO2
K5SM 210811Z AUTO 25007KT 10SM CLR 08/M02 A3055 RMK AO2
K5SM 210754Z AUTO 24006KT 10SM CLR 08/M02 A3055 RMK AO2
K5SM 210730Z AUTO 25005KT 10SM CLR 08/M02 A3055 RMK AO2
K5SM 210712Z AUTO 24006KT 10SM CLR 08/M02 A3055 RMK AO2
K5SM 210652Z AUTO 25005KT 10SM CLR 08/M02 A3055 RMK AO2 LTG DSNT NW
K5SM 210634Z AUTO 25006KT 10SM CLR 09/M02 A3055 RMK AO2
K5SM 210611Z AUTO 25005KT 10SM CLR 09/M02 A3056 RMK AO2
K5SM 210552Z AUTO 25004KT 10SM CLR 10/M02 A3056 RMK AO2
K5SM 210529Z AUTO 27005KT 10SM CLR 10/M03 A3056 RMK AO2
K5SM 210512Z AUTO 27006KT 10SM CLR 10/M03 A3056 RMK AO2
K5SM 210454Z AUTO 27005KT 10SM CLR 10/M02 A3056 RMK AO2
K5SM 210430Z AUTO 26004KT 10SM CLR 10/M02 A3057 RMK AO2
K5SM 210412Z AUTO 27006KT 10SM CLR 11/M02 A3057 RMK AO2
K5SM 210353Z AUTO 28005KT 10SM CLR 11/M02 A3056 RMK AO2
K5SM 210330Z AUTO 28005KT 10SM CLR 11/M02 A3056 RMK AO2
K5SM 210312Z AUTO 28005KT 10SM CLR 11/M02 A3055 RMK AO2
K5SM 210252Z AUTO 32005KT 10SM CLR 11/M01 A3055 RMK AO2
K5SM 210229Z AUTO 30004KT 10SM CLR 12/M01 A3055 RMK AO2
K5SM 210211Z AUTO 00000KT 10SM CLR 12/00 A3055 RMK AO2
K5SM 210153Z AUTO 25005KT 10SM CLR 13/00 A3055 RMK AO2
K5SM 210129Z AUTO 26004KT 10SM CLR 13/00 A3054 RMK AO2
K5SM 210112Z AUTO 25007KT 10SM CLR 14/00 A3053 RMK AO2
K5SM 210053Z AUTO 25005KT 10SM CLR 15/00 A3053 RMK AO2
K5SM 210029Z AUTO 26005KT 10SM CLR 16/M01 A3052 RMK AO2
K5SM 210011Z AUTO 25007G18KT 10SM CLR 16/00 A3052 RMK AO2
K5SM 202353Z AUTO 25006KT 200V290 10SM CLR 16/00 A3052 RMK AO2
K5SM 202329Z AUTO 26006G14KT 10SM CLR 15/M01 A3052 RMK AO2
K5SM 202312Z AUTO 26010G18KT 190V290 10SM CLR 15/00 A3052 RMK AO2
K5SM 202253Z AUTO 22005G18KT 10SM CLR 16/00 A3052 RMK AO2
K5SM 202229Z AUTO 23008G15KT 210V300 10SM CLR 16/01 A3051 RMK AO2
K5SM 202211Z AUTO 25008G17KT 220V350 10SM CLR 16/01 A3051 RMK AO2
K5SM 202154Z AUTO 26009G18KT 230V290 10SM CLR 16/00 A3051 RMK AO2
K5SM 202130Z AUTO 23005KT 10SM CLR 16/01 A3051 RMK AO2
K5SM 202112Z AUTO 26008G18KT 220V310 10SM CLR 16/01 A3051 RMK AO2
K5SM 202052Z AUTO 26006KT 10SM CLR 15/01 A3051 RMK AO2
K5SM 202029Z AUTO 26005G15KT 10SM CLR 15/02 A3051 RMK AO2
K5SM 202012Z AUTO 22006KT 10SM CLR 14/02 A3050 RMK AO2
K5SM 201951Z AUTO 26007KT 220V310 10SM CLR 14/02 A3051 RMK AO2
K5SM 201934Z AUTO 25009G16KT 10SM CLR 13/01 A3051 RMK AO2
K5SM 201912Z AUTO 25006KT 10SM CLR 13/02 A3050 RMK AO2
K5SM 201853Z AUTO 28006G15KT 10SM CLR 12/00 A3050 RMK AO2
K5SM 201829Z AUTO 24006KT 10SM CLR 13/02 A3050 RMK AO2
K5SM 201812Z AUTO 27005KT 10SM CLR 12/00 A3051 RMK AO2
K5SM 201752Z AUTO 25006KT 10SM CLR 12/00 A3050 RMK AO2
K5SM 201729Z AUTO 24003KT 10SM CLR 11/01 A3050 RMK AO2
K5SM 201711Z AUTO 24006KT 10SM CLR 11/02 A3050 RMK AO2
K5SM 201652Z AUTO 22005KT 10SM CLR 10/01 A3050 RMK AO2
K5SM 201629Z AUTO 26005KT 10SM CLR 09/02 A3050 RMK AO2
K5SM 201612Z AUTO 00000KT 10SM CLR 08/02 A3050 RMK AO2
K5SM 201554Z AUTO 00000KT 10SM CLR 08/01 A3050 RMK AO2
K5SM 201530Z AUTO 00000KT 10SM SCT024 07/01 A3050 RMK AO2
K5SM 201512Z AUTO 00000KT 10SM SCT024 08/01 A3050 RMK AO2
K5SM 201454Z AUTO 00000KT 10SM CLR 07/00 A3050 RMK AO2
K5SM 201430Z AUTO 00000KT 10SM CLR 07/00 A3048 RMK AO2
K5SM 201412Z AUTO 00000KT 10SM CLR 07/00 A3048 RMK AO2
K5SM 201354Z AUTO 00000KT 10SM CLR 06/00 A3048 RMK AO2
K5SM 201330Z AUTO 00000KT 10SM CLR 06/00 A3047 RMK AO2
K5SM 201312Z AUTO 00000KT 10SM CLR 05/00 A3046 RMK AO2
K5SM 201254Z AUTO 00000KT 10SM CLR 05/00 A3046 RMK AO2
K5SM 201230Z AUTO 00000KT 10SM CLR 05/00 A3046 RMK AO2
K5SM 201212Z AUTO 00000KT 10SM CLR 04/00 A3046 RMK AO2
K5SM 201152Z AUTO 00000KT 10SM CLR 03/00 A3046 RMK AO2
K5SM 201129Z AUTO 08003KT 10SM CLR 04/00 A3046 RMK AO2
K5SM 201111Z AUTO 00000KT 10SM CLR 04/00 A3045 RMK AO2
K5SM 201053Z AUTO 00000KT 10SM CLR 05/M01 A3045 RMK AO2
K5SM 201029Z AUTO 00000KT 10SM CLR 05/00 A3046 RMK AO2
K5SM 201011Z AUTO 00000KT 10SM CLR 05/00 A3046 RMK AO2
K5SM 200952Z AUTO 00000KT 10SM CLR 05/00 A3046 RMK AO2
K5SM 200929Z AUTO 00000KT 10SM CLR 04/00 A3047 RMK AO2
K5SM 200911Z AUTO 02003KT 10SM CLR 04/00 A3047 RMK AO2
K5SM 200850Z AUTO 04003KT 10SM CLR 05/M01 A3047 RMK AO2
K5SM 200833Z AUTO 00000KT 10SM CLR 06/M01 A3046 RMK AO2
K5SM 200809Z AUTO 00000KT 10SM CLR 06/M01 A3047 RMK AO2
K5SM 200746Z AUTO 31003KT 10SM CLR 06/M01 A3047 RMK AO2
K5SM 200734Z AUTO 31003KT 10SM CLR 06/M01 A3047 RMK AO2
K5SM 200712Z AUTO 00000KT 10SM CLR 06/M01 A3047 RMK AO2
K5SM 200654Z AUTO 25003KT 10SM CLR 06/M01 A3047 RMK AO2
K5SM 200630Z AUTO 00000KT 10SM CLR 06/M01 A3047 RMK AO2
K5SM 200612Z AUTO 28004KT 10SM CLR 07/M01 A3047 RMK AO2
K5SM 200553Z AUTO 00000KT 10SM CLR 07/M01 A3047 RMK AO2
K5SM 200529Z AUTO 29009KT 10SM CLR 07/M01 A3047 RMK AO2 LTG DSNT N
K5SM 200511Z AUTO 28007G16KT 250V340 10SM CLR 07/M01 A3047 RMK AO2
K5SM 200453Z AUTO 26006KT 10SM CLR 07/M02 A3047 RMK AO2
K5SM 200429Z AUTO 28008KT 260V080 10SM CLR 08/M02 A3047 RMK AO2
K5SM 200412Z AUTO 27007G15KT 230V300 10SM CLR 08/M03 A3046 RMK AO2
K5SM 200351Z AUTO 28011G17KT 250V310 10SM CLR 08/M03 A3046 RMK AO2
K5SM 200334Z AUTO 27009G16KT 240V300 10SM CLR 08/M03 A3044 RMK AO2
K5SM 200312Z AUTO 25006G16KT 200V280 10SM CLR 08/M02 A3043 RMK AO2
K5SM 200252Z AUTO 25008G18KT 170V280 10SM CLR 09/M02 A3042 RMK AO2
K5SM 200234Z AUTO 26008G14KT 240V300 10SM CLR 10/M03 A3042 RMK AO2
K5SM 200212Z AUTO 26007G15KT 220V300 10SM CLR 11/M06 A3042 RMK AO2 LTG DSNT E
K5SM 200153Z AUTO 24009G25KT 140V270 10SM CLR 11/M04 A3040 RMK AO2
K5SM 200129Z AUTO 23010G17KT 190V250 10SM CLR 12/M03 A3040 RMK AO2
K5SM 200112Z AUTO 23011G22KT 160V300 10SM CLR 13/M03 A3040 RMK AO2 LTG DSNT SE
K5SM 200052Z AUTO 23006G16KT 10SM CLR 15/M04 A3040 RMK AO2
K5SM 200029Z AUTO 24008G16KT 200V270 10SM CLR 15/M03 A3040 RMK AO2
K5SM 200012Z AUTO 24008G19KT 210V280 10SM CLR 16/M05 A3040 RMK AO2